首页
METAR-TAF:

METAR-TAF

机场 :

庫拉索國際機場

库拉索, 荷属安的列斯

纬度: 12-12N, 经度: 068-58W, 海拔: 9米

当前天气观测

该预报发布于51分钟前的01:00 UTC
风速11节,风向
温度 28°C
湿度 84%
气压 1012 hPa
能见度10公里或以上
散云层高于1700英尺

METAR: TNCC 250100Z 08011KT 9999 SCT017 28/25 Q1012 NOSIG

时间: 21:51 (01:51 UTC)

预报

该预报发布于2小时和36分钟前的23:15 UTC
预报有效从25日的 00点(UTC)到 25日的 24点(UTC)
风速12节,风向
能见度10公里或以上
少量云层高于2200英尺

TAF: TNCC 242315Z 2500/2524 10012KT 9999 FEW022

超过4000个机场的气象观测和天气预报(METAR&TAF报告)。

可查询的气象台以黄色和红色小点在地图上表示。

将鼠标移到小点上方,可查看气象台名称。

然后点击查看天气观测和预报。

如需切换地图:点击带黑十字的绿色按钮放大地图;点击带横线的绿色按钮缩小地图;或者点击绿色箭头查看邻近地区的地图。


METAR-TAF: